Terminal Aerodrome Forecast
Issued by NWS

Home | Current Version | Previous Version | Text Only | Print | Product List | Glossary On
Versions: 1 2 3 4 5 6 7 8 9 10 11 12 13 14 15 16 17 18 19
000
FTUS41 KCLE 211300 AAB
TAFFDY
TAF AMD
KFDY 211308Z 2113/2212 18003KT 3SM BR BKN018
      TEMPO 2113/2115 1 1/2SM BR SCT018
     FM211500 18003KT P6SM BKN020 OVC060
     FM212000 20005KT P6SM SCT030 BKN060=

USA.gov is the U.S. government's official web portal to all federal, state and local government web resources and services.